East Brady, Pennsylvania
Current Conditions -  °F | °C
As of 7:15 AM on Monday 24 Nov 2014 (Local Time) from KBTP Reporting Station
NA  
Wind Chill: 57°   Ceiling: NA
Heat Index: 57°   Visibility: 10mi
Dew Point: 45°   Wind: 16mph
Humidity: 63%   Direction: 190°S
Pressure: 29.46"   Gusts: 23mph
Location:  40.99°N, 79.61°W
Report Text: KBTP 241215Z AUTO 19014G20KT 10SM 14/07 A2946 RMK AO1
Loading
Personal Weather Stations






























Interactive Weather Map New forecast layout! Learn more

10-Day Weather Forecast

Advertisements
Track Severe Weather on mobile